createdAt,value
2022-08-20T00:01:41.820Z,4.43
2022-08-20T00:04:14.554Z,3.85
2022-08-20T00:06:45.198Z,3.80
2022-08-20T00:09:15.784Z,4.35
2022-08-20T00:11:46.671Z,4.45
2022-08-20T00:14:15.825Z,3.15
2022-08-20T00:16:45.743Z,3.95
2022-08-20T00:19:14.320Z,3.20
2022-08-20T00:21:48.610Z,4.50
2022-08-20T00:24:19.781Z,4.28
2022-08-20T00:26:52.153Z,4.32
2022-08-20T00:29:23.891Z,3.88
2022-08-20T00:31:53.998Z,5.25
2022-08-20T00:34:21.500Z,4.30
2022-08-20T00:36:51.903Z,3.97
2022-08-20T00:39:21.794Z,4.18
2022-08-20T00:41:54.308Z,4.40
2022-08-20T00:44:26.243Z,4.57
2022-08-20T00:46:56.799Z,4.28
2022-08-20T00:49:30.764Z,4.32
2022-08-20T00:52:09.616Z,4.13
2022-08-20T00:54:46.636Z,3.88
2022-08-20T00:58:01.781Z,4.38
2022-08-20T01:03:05.063Z,4.55
2022-08-20T01:05:43.991Z,4.80
2022-08-20T01:08:13.552Z,5.03
2022-08-20T01:10:47.401Z,4.93
2022-08-20T01:13:32.393Z,4.07
2022-08-20T01:16:03.558Z,3.78
2022-08-20T01:18:32.871Z,3.70
2022-08-20T01:21:04.219Z,4.25
2022-08-20T01:24:02.173Z,4.35
2022-08-20T01:26:38.041Z,3.92
2022-08-20T01:29:20.954Z,3.88
2022-08-20T01:31:53.948Z,4.37
2022-08-20T01:34:23.865Z,4.28
2022-08-20T01:37:02.652Z,3.95
2022-08-20T01:39:36.324Z,4.53
2022-08-20T01:42:13.033Z,4.35
2022-08-20T01:44:47.352Z,5.32
2022-08-20T01:47:25.894Z,5.03
2022-08-20T01:50:19.876Z,3.78
2022-08-20T01:53:09.160Z,3.72
2022-08-20T01:55:42.209Z,5.10
2022-08-20T01:58:14.140Z,3.95
2022-08-20T02:00:46.774Z,5.25
2022-08-20T02:03:16.909Z,5.05
2022-08-20T02:05:47.962Z,4.88
2022-08-20T02:08:19.042Z,4.70
2022-08-20T02:10:50.554Z,4.68
2022-08-20T02:13:20.856Z,5.88
2022-08-20T02:16:10.795Z,5.20
2022-08-20T02:18:38.733Z,4.57
2022-08-20T02:21:09.573Z,4.50
2022-08-20T02:23:39.854Z,5.22
2022-08-20T02:26:12.257Z,4.60
2022-08-20T02:28:41.964Z,4.25
2022-08-20T02:31:11.805Z,4.50
2022-08-20T02:33:43.050Z,4.07
2022-08-20T02:36:31.065Z,5.70
2022-08-20T02:39:02.026Z,5.18
2022-08-20T02:41:33.122Z,5.70
2022-08-20T02:44:04.508Z,4.70
2022-08-20T02:46:37.894Z,5.38
2022-08-20T02:49:08.606Z,5.97
2022-08-20T02:51:43.949Z,6.72
2022-08-20T02:54:17.332Z,5.47
2022-08-20T02:56:47.868Z,6.75
2022-08-20T02:59:19.613Z,6.43
2022-08-20T03:01:56.660Z,6.63
2022-08-20T03:04:32.847Z,6.18
2022-08-20T03:07:02.559Z,6.78
2022-08-20T03:09:34.297Z,6.55
2022-08-20T03:12:05.091Z,7.30
2022-08-20T03:14:35.042Z,6.10
2022-08-20T03:17:05.639Z,7.55
2022-08-20T03:19:39.204Z,6.10
2022-08-20T03:22:13.288Z,6.43
2022-08-20T03:24:41.529Z,5.43
2022-08-20T03:27:12.534Z,5.53
2022-08-20T03:29:46.878Z,5.68
2022-08-20T03:34:44.544Z,5.68
2022-08-20T03:37:15.248Z,5.47
2022-08-20T03:39:45.288Z,6.60
2022-08-20T03:42:18.301Z,6.22
2022-08-20T03:44:47.717Z,6.60
2022-08-20T03:47:29.422Z,5.25
2022-08-20T03:50:04.287Z,5.40
2022-08-20T03:52:35.105Z,5.90
2022-08-20T03:55:09.230Z,6.05
2022-08-20T03:57:43.354Z,5.47
2022-08-20T04:00:17.194Z,7.53
2022-08-20T04:02:48.647Z,7.75
2022-08-20T04:05:19.870Z,8.32
2022-08-20T04:07:47.271Z,8.05
2022-08-20T04:10:18.490Z,7.60
2022-08-20T04:12:53.186Z,8.43
2022-08-20T04:15:27.194Z,8.82
2022-08-20T04:17:57.239Z,9.70
2022-08-20T04:20:30.012Z,11.57
2022-08-20T04:23:01.778Z,12.07
2022-08-20T04:25:43.269Z,9.95
2022-08-20T04:28:16.290Z,8.93
2022-08-20T04:30:51.693Z,8.38
2022-08-20T04:33:22.718Z,7.93
2022-08-20T04:36:05.757Z,7.18
2022-08-20T04:38:49.733Z,8.98
2022-08-20T04:41:23.475Z,10.68
2022-08-20T04:43:56.140Z,8.18
2022-08-20T04:46:29.190Z,8.73
2022-08-20T04:49:00.286Z,8.30
2022-08-20T04:51:31.645Z,7.78
2022-08-20T04:54:06.076Z,7.72
2022-08-20T04:56:42.635Z,8.40
2022-08-20T04:59:14.537Z,7.55
2022-08-20T05:01:46.014Z,7.88
2022-08-20T05:04:16.072Z,8.95
2022-08-20T05:06:47.552Z,8.38
2022-08-20T05:09:19.781Z,7.78
2022-08-20T05:11:50.982Z,8.27
2022-08-20T05:14:21.331Z,8.70
2022-08-20T05:17:01.944Z,7.78
2022-08-20T05:19:30.086Z,7.22
2022-08-20T05:22:00.130Z,9.05
2022-08-20T05:24:30.180Z,9.43
2022-08-20T05:27:01.885Z,8.93
2022-08-20T05:29:32.356Z,8.88
2022-08-20T05:32:03.718Z,10.23
2022-08-20T05:34:32.213Z,10.52
2022-08-20T05:37:07.732Z,11.90
2022-08-20T05:39:39.158Z,11.48
2022-08-20T05:42:11.200Z,12.75
2022-08-20T05:44:40.352Z,10.75
2022-08-20T05:47:12.837Z,13.85
2022-08-20T05:49:44.589Z,12.52
2022-08-20T05:52:15.437Z,11.35
2022-08-20T05:54:43.019Z,13.05
2022-08-20T05:57:13.157Z,13.95
2022-08-20T05:59:43.405Z,12.32
2022-08-20T06:02:35.030Z,10.77
2022-08-20T06:05:05.384Z,11.70
2022-08-20T06:07:37.428Z,11.80
2022-08-20T06:10:12.983Z,10.68
2022-08-20T06:12:45.815Z,10.07
2022-08-20T06:15:16.409Z,11.75
2022-08-20T06:17:44.154Z,11.18
2022-08-20T06:20:13.164Z,10.77
2022-08-20T06:22:45.415Z,11.48
2022-08-20T06:25:16.189Z,11.52
2022-08-20T06:27:49.351Z,10.68
2022-08-20T06:30:25.794Z,12.30
2022-08-20T06:32:56.280Z,11.32
2022-08-20T06:35:25.390Z,10.70
2022-08-20T06:37:56.447Z,11.52
2022-08-20T06:40:31.768Z,13.50
2022-08-20T06:43:04.264Z,12.77
2022-08-20T06:45:35.788Z,13.73
2022-08-20T06:48:11.121Z,12.30
2022-08-20T06:50:48.524Z,10.77
2022-08-20T06:53:18.344Z,11.73
2022-08-20T06:55:50.545Z,11.93
2022-08-20T06:58:36.834Z,12.07
2022-08-20T07:01:11.920Z,10.90
2022-08-20T07:03:54.882Z,10.38
2022-08-20T07:06:25.955Z,10.93
2022-08-20T07:08:55.725Z,9.93
2022-08-20T07:11:31.932Z,9.93
2022-08-20T07:14:07.425Z,9.73
2022-08-20T07:16:37.381Z,10.05
2022-08-20T07:19:05.158Z,8.43
2022-08-20T07:21:36.977Z,9.48
2022-08-20T07:24:07.719Z,9.50
2022-08-20T07:26:40.809Z,8.32
2022-08-20T07:29:13.081Z,9.70
2022-08-20T07:32:02.699Z,9.95
2022-08-20T07:34:34.552Z,8.68
2022-08-20T07:37:07.846Z,9.40
2022-08-20T07:39:36.102Z,8.75
2022-08-20T07:42:10.295Z,8.63
2022-08-20T07:44:41.093Z,9.07
2022-08-20T07:47:09.886Z,8.70
2022-08-20T07:49:40.289Z,9.50
2022-08-20T07:52:10.950Z,9.63
2022-08-20T07:54:43.322Z,8.43
2022-08-20T07:57:22.473Z,8.18
2022-08-20T07:59:52.181Z,8.07
2022-08-20T08:02:31.649Z,9.52
2022-08-20T08:05:19.052Z,8.13
2022-08-20T08:07:51.287Z,8.25
2022-08-20T08:10:25.366Z,7.63
2022-08-20T08:13:04.791Z,7.35
2022-08-20T08:15:39.669Z,8.15
2022-08-20T08:18:31.996Z,10.40
2022-08-20T08:21:01.782Z,9.63
2022-08-20T08:23:31.857Z,10.60
2022-08-20T08:26:00.914Z,11.65
2022-08-20T08:28:33.645Z,10.25
2022-08-20T08:31:04.919Z,11.35
2022-08-20T08:33:35.493Z,11.90
2022-08-20T08:36:16.987Z,9.75
2022-08-20T08:38:49.278Z,11.18
2022-08-20T08:41:36.293Z,9.48
2022-08-20T08:44:16.715Z,9.23
2022-08-20T08:46:53.163Z,10.25
2022-08-20T08:49:37.435Z,9.50
2022-08-20T08:52:19.276Z,9.02
2022-08-20T08:54:54.068Z,9.90
2022-08-20T08:57:32.954Z,9.52
2022-08-20T09:00:16.313Z,7.45
2022-08-20T09:03:02.474Z,7.90
2022-08-20T09:05:47.393Z,9.25
2022-08-20T09:11:24.919Z,8.15
2022-08-20T09:13:58.445Z,8.95
2022-08-20T09:16:28.608Z,9.13
2022-08-20T09:19:13.383Z,9.00
2022-08-20T09:21:42.196Z,9.20
2022-08-20T09:24:10.032Z,9.85
2022-08-20T09:26:40.445Z,11.05
2022-08-20T09:29:10.891Z,10.75
2022-08-20T09:31:45.230Z,10.82
2022-08-20T09:34:19.132Z,10.05
2022-08-20T09:36:52.568Z,9.93
2022-08-20T09:39:24.558Z,10.30
2022-08-20T09:41:54.501Z,8.93
2022-08-20T09:44:29.289Z,9.85
2022-08-20T09:47:04.285Z,11.02
2022-08-20T09:49:32.259Z,12.07
2022-08-20T09:52:08.793Z,11.38
2022-08-20T09:55:06.885Z,11.60
2022-08-20T10:00:23.182Z,9.55
2022-08-20T10:02:55.192Z,10.55
2022-08-20T10:05:25.794Z,11.10
2022-08-20T10:07:57.273Z,10.05
2022-08-20T10:10:25.006Z,9.85
2022-08-20T10:12:56.467Z,9.63
2022-08-20T10:15:24.190Z,12.43
2022-08-20T10:17:57.225Z,13.65
2022-08-20T10:20:25.751Z,16.38
2022-08-20T10:22:56.383Z,15.85
2022-08-20T10:25:25.233Z,14.10
2022-08-20T10:27:58.137Z,15.63
2022-08-20T10:30:30.699Z,16.10
2022-08-20T10:33:02.378Z,17.27
2022-08-20T10:35:33.787Z,17.85
2022-08-20T10:38:03.124Z,17.83
2022-08-20T10:40:34.312Z,19.58
2022-08-20T10:43:03.845Z,18.90
2022-08-20T10:45:34.629Z,19.92
2022-08-20T10:48:06.504Z,18.52
2022-08-20T10:50:42.150Z,15.07
2022-08-20T10:53:10.576Z,14.90
2022-08-20T10:55:40.790Z,14.15
2022-08-20T10:58:11.878Z,12.38
2022-08-20T11:00:42.090Z,12.77
2022-08-20T11:03:13.626Z,11.23
2022-08-20T11:05:44.297Z,13.25
2022-08-20T11:08:13.417Z,11.38
2022-08-20T11:10:42.689Z,11.45
2022-08-20T11:13:14.669Z,10.27
2022-08-20T11:15:47.000Z,12.88
2022-08-20T11:18:18.282Z,12.38
2022-08-20T11:20:49.504Z,13.27
2022-08-20T11:23:19.833Z,14.82
2022-08-20T11:25:49.220Z,12.75
2022-08-20T11:28:19.319Z,13.50
2022-08-20T11:31:04.779Z,14.32
2022-08-20T11:33:34.771Z,12.60
2022-08-20T11:36:04.521Z,13.45
2022-08-20T11:38:35.663Z,11.82
2022-08-20T11:41:07.590Z,13.95
2022-08-20T11:43:36.415Z,12.40
2022-08-20T11:46:08.419Z,10.95
2022-08-20T11:48:36.531Z,13.27
2022-08-20T11:51:06.144Z,15.02
2022-08-20T11:53:36.380Z,16.10
2022-08-20T11:56:13.677Z,19.63
2022-08-20T11:58:44.469Z,21.70
2022-08-20T12:01:14.042Z,21.00
2022-08-20T12:03:42.672Z,20.30
2022-08-20T12:06:13.663Z,20.33
2022-08-20T12:08:41.317Z,18.58
2022-08-20T12:11:12.494Z,17.55
2022-08-20T12:13:47.740Z,17.52
2022-08-20T12:16:19.019Z,18.85
2022-08-20T12:18:48.899Z,20.00
2022-08-20T12:21:18.664Z,17.50
2022-08-20T12:23:49.220Z,17.17
2022-08-20T12:26:20.737Z,15.52
2022-08-20T12:28:50.762Z,16.23
2022-08-20T12:31:18.104Z,14.48
2022-08-20T12:33:49.679Z,14.85
2022-08-20T12:36:19.373Z,15.70
2022-08-20T12:38:51.656Z,17.08
2022-08-20T12:41:23.589Z,17.77
2022-08-20T12:43:54.952Z,17.58
2022-08-20T12:46:28.710Z,18.55
2022-08-20T12:48:59.070Z,18.08
2022-08-20T12:51:31.738Z,17.35
2022-08-20T12:54:05.964Z,16.27
2022-08-20T12:56:35.664Z,14.93
2022-08-20T12:59:05.605Z,13.05
2022-08-20T13:01:37.887Z,14.80
2022-08-20T13:04:06.932Z,12.85
2022-08-20T13:06:38.014Z,12.95
2022-08-20T13:09:11.392Z,12.52
2022-08-20T13:11:39.862Z,13.93
2022-08-20T13:14:12.143Z,15.88
2022-08-20T13:16:43.145Z,16.42
2022-08-20T13:19:14.304Z,15.70
2022-08-20T13:21:45.407Z,15.65
2022-08-20T13:24:25.159Z,15.52
2022-08-20T13:26:56.521Z,15.90
2022-08-20T13:29:28.655Z,14.55
2022-08-20T13:32:04.167Z,14.23
2022-08-20T13:34:34.994Z,15.07
2022-08-20T13:37:27.792Z,13.32
2022-08-20T13:40:01.950Z,11.88
2022-08-20T13:42:35.322Z,12.63
2022-08-20T13:45:07.609Z,12.77
2022-08-20T13:47:40.552Z,10.27
2022-08-20T13:50:17.929Z,10.45
2022-08-20T13:53:18.195Z,12.60
2022-08-20T13:55:49.050Z,12.73
2022-08-20T13:58:20.629Z,13.25
2022-08-20T14:00:53.909Z,13.23
2022-08-20T14:03:25.922Z,15.23
2022-08-20T14:05:58.028Z,14.98
2022-08-20T14:08:25.553Z,14.85
2022-08-20T14:10:54.951Z,16.50
2022-08-20T14:13:28.025Z,16.85
2022-08-20T14:15:56.414Z,19.73
2022-08-20T14:18:27.803Z,19.65
2022-08-20T14:20:58.643Z,18.85
2022-08-20T14:23:29.829Z,19.67
2022-08-20T14:26:01.266Z,19.52
2022-08-20T14:28:35.439Z,19.33
2022-08-20T14:31:03.556Z,24.70
2022-08-20T14:33:32.260Z,27.02
2022-08-20T14:36:02.052Z,23.95
2022-08-20T14:38:33.824Z,23.75
2022-08-20T14:41:07.940Z,27.15
2022-08-20T14:43:38.980Z,32.30
2022-08-20T14:46:08.093Z,30.33
2022-08-20T14:48:38.046Z,29.30
2022-08-20T14:51:11.696Z,26.65
2022-08-20T14:53:41.933Z,25.38
2022-08-20T14:56:12.330Z,26.33
2022-08-20T14:58:44.560Z,23.67
2022-08-20T15:01:16.151Z,24.20
2022-08-20T15:03:44.321Z,23.13
2022-08-20T15:06:22.141Z,19.10
2022-08-20T15:08:51.597Z,19.27
2022-08-20T15:11:23.161Z,18.88
2022-08-20T15:13:56.961Z,23.30
2022-08-20T15:16:29.463Z,22.83
2022-08-20T15:19:01.834Z,22.27
2022-08-20T15:21:45.091Z,20.65
2022-08-20T15:24:19.292Z,22.75
2022-08-20T15:26:48.193Z,20.80
2022-08-20T15:29:23.250Z,22.33
2022-08-20T15:31:55.156Z,20.98
2022-08-20T15:34:27.698Z,19.80
2022-08-20T15:37:00.159Z,22.70
2022-08-20T15:39:28.285Z,19.20
2022-08-20T15:41:59.601Z,17.38
2022-08-20T15:47:31.993Z,15.38
2022-08-20T15:50:32.500Z,16.60
2022-08-20T15:53:31.932Z,16.30
2022-08-20T15:57:01.440Z,16.60
2022-08-20T16:00:02.350Z,15.73
2022-08-20T16:03:13.726Z,14.88
2022-08-20T16:05:56.094Z,16.50
2022-08-20T16:08:50.645Z,13.25
2022-08-20T16:11:39.377Z,13.00
2022-08-20T16:14:28.401Z,12.40
2022-08-20T16:17:07.936Z,13.05
2022-08-20T16:19:50.148Z,11.32
2022-08-20T16:22:19.476Z,9.68
2022-08-20T16:24:51.012Z,13.18
2022-08-20T16:27:47.618Z,11.10
2022-08-20T16:30:39.912Z,10.38
2022-08-20T16:33:34.424Z,8.82
2022-08-20T16:36:13.118Z,9.00
2022-08-20T16:38:45.001Z,8.73
2022-08-20T16:41:49.168Z,9.77
2022-08-20T16:44:55.575Z,10.35
2022-08-20T16:47:37.230Z,11.30
2022-08-20T16:50:50.206Z,11.15
2022-08-20T16:53:25.629Z,11.90
2022-08-20T16:55:58.736Z,10.25
2022-08-20T16:58:30.096Z,12.77
2022-08-20T17:01:20.166Z,12.15
2022-08-20T17:03:51.173Z,14.85
2022-08-20T17:06:47.588Z,13.70
2022-08-20T17:09:35.532Z,11.95
2022-08-20T17:12:25.293Z,12.90
2022-08-20T17:15:00.786Z,13.35
2022-08-20T17:17:40.090Z,13.98
2022-08-20T17:20:45.007Z,12.07
2022-08-20T17:23:20.462Z,13.15
2022-08-20T17:26:04.941Z,13.15
2022-08-20T17:28:35.551Z,13.07
2022-08-20T17:31:07.195Z,13.88
2022-08-20T17:33:58.193Z,12.30
2022-08-20T17:36:29.887Z,13.70
2022-08-20T17:39:03.384Z,13.20
2022-08-20T17:41:36.580Z,13.60
2022-08-20T17:44:24.476Z,15.30
2022-08-20T17:46:56.852Z,15.60
2022-08-20T17:50:00.494Z,14.13
2022-08-20T17:52:44.097Z,14.45
2022-08-20T17:55:15.751Z,16.52
2022-08-20T17:57:56.527Z,15.60
2022-08-20T18:00:30.610Z,18.63
2022-08-20T18:03:32.679Z,16.58
2022-08-20T18:06:20.007Z,16.48
2022-08-20T18:08:50.247Z,18.75
2022-08-20T18:11:55.493Z,19.00
2022-08-20T18:14:47.700Z,17.90
2022-08-20T18:17:38.280Z,16.02
2022-08-20T18:20:21.886Z,17.10
2022-08-20T18:23:15.688Z,16.63
2022-08-20T18:26:18.532Z,17.33
2022-08-20T18:28:51.279Z,15.27
2022-08-20T18:31:42.501Z,21.67
2022-08-20T18:34:17.292Z,26.00
2022-08-20T18:37:26.622Z,24.48
2022-08-20T18:40:11.317Z,17.35
2022-08-20T18:42:44.429Z,18.02
2022-08-20T18:45:26.955Z,15.98
2022-08-20T18:48:00.988Z,15.82
2022-08-20T18:50:47.401Z,16.30
2022-08-20T18:53:33.988Z,18.60
2022-08-20T18:56:07.733Z,17.55
2022-08-20T18:59:10.201Z,16.73
2022-08-20T19:01:40.787Z,16.75
2022-08-20T19:04:24.329Z,16.63
2022-08-20T19:07:05.563Z,15.32
2022-08-20T19:10:27.928Z,15.65
2022-08-20T19:13:34.109Z,14.18
2022-08-20T19:16:15.023Z,16.45
2022-08-20T19:19:03.577Z,16.85
2022-08-20T19:21:42.414Z,16.25
2022-08-20T19:24:17.491Z,15.07
2022-08-20T19:26:54.384Z,15.20
2022-08-20T19:29:29.313Z,13.77
2022-08-20T19:32:07.957Z,14.32
2022-08-20T19:34:38.009Z,15.68
2022-08-20T19:37:34.803Z,19.98
2022-08-20T19:40:28.178Z,19.30
2022-08-20T19:45:57.648Z,20.77
2022-08-20T19:49:07.162Z,21.20
2022-08-20T19:52:14.015Z,18.98
2022-08-20T19:55:04.229Z,19.48
2022-08-20T19:57:56.380Z,20.88
2022-08-20T20:00:29.078Z,25.38
2022-08-20T20:03:08.257Z,22.20
2022-08-20T20:05:48.210Z,20.08
2022-08-20T20:08:18.327Z,19.23
2022-08-20T20:11:03.169Z,19.40
2022-08-20T20:13:39.655Z,18.40
2022-08-20T20:16:20.084Z,18.52
2022-08-20T20:19:03.752Z,19.13
2022-08-20T20:21:43.702Z,18.23
2022-08-20T20:24:28.363Z,21.73
2022-08-20T20:27:14.994Z,20.63
2022-08-20T20:29:49.895Z,17.85
2022-08-20T20:32:26.786Z,17.30
2022-08-20T20:35:02.532Z,18.00
2022-08-20T20:37:49.766Z,16.02
2022-08-20T20:40:49.626Z,17.08
2022-08-20T20:43:39.576Z,18.05
2022-08-20T20:46:20.986Z,18.20
2022-08-20T20:49:02.253Z,18.58
2022-08-20T20:51:42.176Z,20.83
2022-08-20T20:54:50.817Z,18.70
2022-08-20T20:57:37.744Z,17.75
2022-08-20T21:00:19.148Z,18.83
2022-08-20T21:02:46.734Z,22.50
2022-08-20T21:05:21.511Z,20.05
2022-08-20T21:08:04.266Z,19.35
2022-08-20T21:10:38.972Z,22.52
2022-08-20T21:13:11.036Z,20.05
2022-08-20T21:15:40.423Z,20.10
2022-08-20T21:18:14.241Z,21.30
2022-08-20T21:20:46.106Z,19.45
2022-08-20T21:23:14.552Z,19.42
2022-08-20T21:25:44.681Z,20.70
2022-08-20T21:28:16.674Z,20.27
2022-08-20T21:30:47.551Z,20.17
2022-08-20T21:33:19.114Z,18.90
2022-08-20T21:35:50.161Z,21.50
2022-08-20T21:38:20.475Z,21.95
2022-08-20T21:40:51.396Z,19.98
2022-08-20T21:43:21.266Z,18.23
2022-08-20T21:45:52.096Z,19.50
2022-08-20T21:51:09.700Z,22.47
2022-08-20T21:53:39.530Z,22.00
2022-08-20T21:56:11.941Z,23.35
2022-08-20T21:58:57.171Z,24.50
2022-08-20T22:01:28.368Z,26.42
2022-08-20T22:03:58.724Z,25.85
2022-08-20T22:06:33.261Z,23.95
2022-08-20T22:09:04.841Z,20.88
2022-08-20T22:11:37.125Z,20.23
2022-08-20T22:14:12.644Z,20.17
2022-08-20T22:16:45.564Z,23.90
2022-08-20T22:19:17.574Z,23.25
2022-08-20T22:21:48.408Z,23.80
2022-08-20T22:24:21.850Z,23.27
2022-08-20T22:26:51.183Z,20.70
2022-08-20T22:29:22.293Z,21.27
2022-08-20T22:31:53.607Z,20.48
2022-08-20T22:34:23.012Z,19.77
2022-08-20T22:36:56.041Z,20.77
2022-08-20T22:39:27.459Z,23.90
2022-08-20T22:42:00.339Z,25.35
2022-08-20T22:44:31.701Z,25.42
2022-08-20T22:47:05.689Z,25.10
2022-08-20T22:49:40.177Z,26.50
2022-08-20T22:54:44.628Z,26.52
2022-08-20T22:57:20.444Z,26.42
2022-08-20T22:59:53.527Z,26.08
2022-08-20T23:02:26.753Z,23.20
2022-08-20T23:04:57.336Z,24.15
2022-08-20T23:07:28.618Z,24.88
2022-08-20T23:09:58.448Z,22.15
2022-08-20T23:12:29.769Z,20.45
2022-08-20T23:14:59.403Z,21.38
2022-08-20T23:17:31.357Z,19.35
2022-08-20T23:19:59.134Z,18.77
2022-08-20T23:22:29.384Z,20.27
2022-08-20T23:25:00.660Z,19.17
2022-08-20T23:27:34.775Z,20.55
2022-08-20T23:30:06.456Z,21.38
2022-08-20T23:32:35.979Z,20.70
2022-08-20T23:35:10.547Z,18.15
2022-08-20T23:37:52.726Z,20.48
2022-08-20T23:40:26.864Z,21.45
2022-08-20T23:42:57.838Z,23.52
2022-08-20T23:45:27.201Z,21.83
2022-08-20T23:47:56.973Z,23.88
2022-08-20T23:50:31.212Z,24.83
2022-08-20T23:53:01.352Z,25.88
2022-08-20T23:55:33.075Z,27.33
2022-08-20T23:58:03.905Z,26.33
